createdAt,value
2022-07-31T00:00:12.987Z,100.00
2022-07-31T00:02:39.630Z,100.00
2022-07-31T00:05:06.879Z,100.00
2022-07-31T00:07:33.606Z,100.00
2022-07-31T00:10:00.379Z,100.00
2022-07-31T00:12:26.961Z,100.00
2022-07-31T00:14:53.649Z,100.00
2022-07-31T00:17:20.460Z,100.00
2022-07-31T00:19:47.293Z,100.00
2022-07-31T00:22:13.897Z,100.00
2022-07-31T00:24:40.912Z,100.00
2022-07-31T00:27:08.074Z,100.00
2022-07-31T00:29:34.684Z,100.00
2022-07-31T00:32:01.302Z,100.00
2022-07-31T00:34:28.000Z,100.00
2022-07-31T00:36:54.605Z,100.00
2022-07-31T00:39:21.220Z,100.00
2022-07-31T00:41:47.937Z,100.00
2022-07-31T00:44:14.521Z,100.00
2022-07-31T00:46:42.279Z,100.00
2022-07-31T00:49:12.951Z,100.00
2022-07-31T00:51:40.337Z,100.00
2022-07-31T00:54:08.552Z,100.00
2022-07-31T00:56:35.741Z,100.00
2022-07-31T00:59:02.519Z,100.00
2022-07-31T01:01:29.494Z,100.00
2022-07-31T01:03:57.378Z,100.00
2022-07-31T01:06:24.646Z,100.00
2022-07-31T01:08:52.624Z,100.00
2022-07-31T01:12:24.490Z,100.00
2022-07-31T01:14:54.970Z,100.00
2022-07-31T01:17:23.812Z,100.00
2022-07-31T01:19:52.618Z,100.00
2022-07-31T01:22:46.733Z,100.00
2022-07-31T01:25:34.332Z,100.00
2022-07-31T01:28:20.408Z,100.00
2022-07-31T01:31:04.985Z,100.00
2022-07-31T01:33:46.891Z,100.00
2022-07-31T01:36:17.085Z,100.00
2022-07-31T01:38:48.323Z,100.00
2022-07-31T01:41:17.184Z,100.00
2022-07-31T01:43:48.328Z,100.00
2022-07-31T01:46:17.709Z,100.00
2022-07-31T01:48:45.226Z,100.00
2022-07-31T01:51:13.052Z,100.00
2022-07-31T01:53:41.224Z,100.00
2022-07-31T01:56:09.098Z,100.00
2022-07-31T01:58:38.371Z,100.00
2022-07-31T02:01:09.109Z,100.00
2022-07-31T02:03:43.651Z,100.00
2022-07-31T02:06:13.735Z,100.00
2022-07-31T02:08:41.481Z,100.00
2022-07-31T02:11:08.777Z,100.00
2022-07-31T02:13:36.364Z,100.00
2022-07-31T02:16:04.896Z,100.00
2022-07-31T02:18:33.148Z,100.00
2022-07-31T02:21:01.889Z,100.00
2022-07-31T02:23:28.721Z,100.00
2022-07-31T02:25:55.757Z,100.00
2022-07-31T02:28:23.899Z,100.00
2022-07-31T02:30:51.993Z,100.00
2022-07-31T02:33:21.745Z,100.00
2022-07-31T02:35:50.280Z,100.00
2022-07-31T02:38:23.506Z,100.00
2022-07-31T02:40:51.803Z,100.00
2022-07-31T02:43:19.900Z,100.00
2022-07-31T02:45:47.443Z,100.00
2022-07-31T02:48:14.530Z,100.00
2022-07-31T02:50:42.029Z,100.00
2022-07-31T02:53:09.031Z,100.00
2022-07-31T02:55:36.976Z,100.00
2022-07-31T02:58:06.696Z,100.00
2022-07-31T03:00:33.684Z,100.00
2022-07-31T03:03:01.181Z,100.00
2022-07-31T03:05:28.433Z,100.00
2022-07-31T03:07:55.029Z,100.00
2022-07-31T03:10:22.695Z,100.00
2022-07-31T03:12:52.041Z,100.00
2022-07-31T03:15:20.410Z,100.00
2022-07-31T03:17:48.322Z,100.00
2022-07-31T03:20:16.403Z,100.00
2022-07-31T03:22:43.793Z,100.00
2022-07-31T03:25:11.165Z,100.00
2022-07-31T03:27:55.644Z,100.00
2022-07-31T03:30:25.515Z,100.00
2022-07-31T03:32:55.767Z,100.00
2022-07-31T03:35:24.303Z,100.00
2022-07-31T03:37:51.694Z,100.00
2022-07-31T03:40:18.815Z,100.00
2022-07-31T03:42:47.007Z,100.00
2022-07-31T03:45:13.929Z,100.00
2022-07-31T03:47:41.049Z,100.00
2022-07-31T03:50:09.908Z,100.00
2022-07-31T03:52:37.860Z,100.00
2022-07-31T03:55:05.047Z,100.00
2022-07-31T03:57:34.185Z,100.00
2022-07-31T04:00:03.086Z,100.00
2022-07-31T04:02:31.693Z,100.00
2022-07-31T04:04:59.746Z,100.00
2022-07-31T04:07:26.528Z,100.00
2022-07-31T04:09:54.767Z,100.00
2022-07-31T04:12:23.278Z,100.00
2022-07-31T04:14:51.115Z,100.00
2022-07-31T04:17:17.865Z,100.00
2022-07-31T04:19:45.322Z,100.00
2022-07-31T04:22:12.123Z,100.00
2022-07-31T04:24:40.827Z,100.00
2022-07-31T04:27:12.557Z,100.00
2022-07-31T04:29:39.971Z,100.00
2022-07-31T04:32:07.214Z,100.00
2022-07-31T04:34:35.028Z,100.00
2022-07-31T04:37:01.976Z,100.00
2022-07-31T04:39:28.959Z,100.00
2022-07-31T04:41:57.817Z,100.00
2022-07-31T04:44:24.662Z,100.00
2022-07-31T04:46:52.026Z,100.00
2022-07-31T04:49:19.247Z,100.00
2022-07-31T04:51:46.365Z,100.00
2022-07-31T04:54:14.180Z,100.00
2022-07-31T04:56:44.667Z,100.00
2022-07-31T04:59:13.645Z,100.00
2022-07-31T05:01:43.584Z,100.00
2022-07-31T05:04:14.217Z,100.00
2022-07-31T05:06:49.853Z,100.00
2022-07-31T05:09:19.644Z,100.00
2022-07-31T05:11:52.065Z,100.00
2022-07-31T05:14:21.085Z,100.00
2022-07-31T05:16:48.578Z,100.00
2022-07-31T05:19:16.055Z,100.00
2022-07-31T05:21:53.407Z,100.00
2022-07-31T05:24:33.229Z,100.00
2022-07-31T05:27:03.560Z,100.00
2022-07-31T05:29:31.470Z,100.00
2022-07-31T05:32:00.563Z,100.00
2022-07-31T05:34:29.910Z,100.00
2022-07-31T05:36:59.539Z,100.00
2022-07-31T05:39:26.976Z,100.00
2022-07-31T05:41:54.810Z,100.00
2022-07-31T05:44:22.227Z,100.00
2022-07-31T05:49:16.926Z,100.00
2022-07-31T05:51:45.967Z,100.00
2022-07-31T05:54:14.538Z,100.00
2022-07-31T05:56:42.314Z,100.00
2022-07-31T05:59:10.110Z,100.00
2022-07-31T06:01:37.973Z,100.00
2022-07-31T06:04:06.449Z,100.00
2022-07-31T06:06:33.678Z,100.00
2022-07-31T06:09:04.406Z,100.00
2022-07-31T06:11:32.395Z,100.00
2022-07-31T06:13:59.729Z,100.00
2022-07-31T06:16:26.789Z,100.00
2022-07-31T06:18:54.226Z,100.00
2022-07-31T06:23:48.263Z,100.00
2022-07-31T06:26:15.267Z,100.00
2022-07-31T06:28:48.870Z,100.00
2022-07-31T06:31:18.611Z,99.71
2022-07-31T06:33:48.229Z,98.58
2022-07-31T06:36:17.613Z,99.78
2022-07-31T06:38:46.319Z,100.00
2022-07-31T06:41:35.551Z,99.12
2022-07-31T06:44:06.010Z,97.89
2022-07-31T06:46:33.793Z,97.82
2022-07-31T06:49:06.880Z,97.39
2022-07-31T06:51:37.702Z,97.44
2022-07-31T06:54:09.857Z,96.52
2022-07-31T06:56:40.349Z,95.50
2022-07-31T06:59:08.320Z,94.26
2022-07-31T07:01:36.541Z,94.76
2022-07-31T07:04:04.850Z,95.19
2022-07-31T07:06:36.066Z,95.26
2022-07-31T07:09:03.672Z,94.45
2022-07-31T07:11:33.222Z,92.46
2022-07-31T07:14:00.848Z,92.77
2022-07-31T07:16:29.752Z,92.94
2022-07-31T07:18:57.653Z,93.15
2022-07-31T07:21:32.355Z,92.92
2022-07-31T07:24:03.089Z,93.29
2022-07-31T07:26:31.630Z,90.70
2022-07-31T07:28:59.851Z,91.35
2022-07-31T07:31:27.829Z,91.59
2022-07-31T07:33:56.635Z,91.02
2022-07-31T07:36:30.063Z,89.90
2022-07-31T07:38:58.398Z,89.82
2022-07-31T07:41:26.267Z,86.77
2022-07-31T07:43:54.037Z,87.91
2022-07-31T07:46:26.088Z,87.12
2022-07-31T07:48:53.277Z,86.95
2022-07-31T07:51:23.673Z,86.86
2022-07-31T07:53:55.078Z,86.24
2022-07-31T07:56:25.114Z,86.58
2022-07-31T07:58:54.474Z,86.43
2022-07-31T08:01:21.696Z,86.76
2022-07-31T08:03:52.060Z,86.13
2022-07-31T08:06:21.160Z,86.10
2022-07-31T08:08:48.431Z,86.14
2022-07-31T08:11:17.022Z,86.11
2022-07-31T08:13:49.538Z,84.46
2022-07-31T08:16:17.392Z,83.85
2022-07-31T08:18:46.797Z,84.07
2022-07-31T08:21:14.747Z,83.34
2022-07-31T08:23:41.921Z,81.79
2022-07-31T08:26:09.376Z,79.19
2022-07-31T08:28:37.929Z,78.50
2022-07-31T08:31:08.343Z,78.31
2022-07-31T08:33:35.138Z,78.98
2022-07-31T08:36:01.916Z,77.60
2022-07-31T08:38:29.381Z,77.97
2022-07-31T08:40:56.284Z,76.24
2022-07-31T08:44:03.250Z,76.47
2022-07-31T08:46:11.037Z,75.98
2022-07-31T08:48:40.664Z,77.18
2022-07-31T08:51:08.006Z,72.92
2022-07-31T08:53:37.856Z,74.44
2022-07-31T08:56:06.668Z,73.91
2022-07-31T08:58:38.663Z,73.53
2022-07-31T09:01:06.369Z,73.85
2022-07-31T09:03:34.993Z,71.96
2022-07-31T09:06:01.960Z,71.06
2022-07-31T09:08:33.445Z,70.38
2022-07-31T09:11:14.897Z,71.69
2022-07-31T09:14:03.344Z,68.99
2022-07-31T09:16:31.421Z,68.37
2022-07-31T09:19:51.655Z,67.66
2022-07-31T09:21:53.373Z,65.42
2022-07-31T09:24:39.665Z,65.53
2022-07-31T09:27:10.544Z,64.79
2022-07-31T09:29:44.376Z,64.80
2022-07-31T09:32:19.015Z,63.92
2022-07-31T09:34:47.961Z,64.96
2022-07-31T09:37:19.897Z,62.45
2022-07-31T09:39:54.398Z,64.41
2022-07-31T09:42:25.560Z,62.45
2022-07-31T09:44:52.576Z,62.93
2022-07-31T09:47:38.250Z,63.05
2022-07-31T09:50:06.414Z,60.05
2022-07-31T09:52:34.018Z,57.88
2022-07-31T09:55:16.981Z,59.00
2022-07-31T09:57:55.979Z,57.80
2022-07-31T10:00:23.802Z,55.72
2022-07-31T10:02:52.953Z,56.76
2022-07-31T10:05:23.318Z,55.03
2022-07-31T10:07:50.473Z,55.50
2022-07-31T10:10:17.748Z,52.30
2022-07-31T10:12:49.074Z,53.43
2022-07-31T10:15:17.558Z,50.35
2022-07-31T10:17:47.539Z,50.51
2022-07-31T10:20:22.111Z,51.25
2022-07-31T10:22:56.048Z,51.39
2022-07-31T10:25:26.962Z,51.52
2022-07-31T10:27:57.379Z,51.10
2022-07-31T10:30:28.091Z,50.55
2022-07-31T10:32:56.687Z,51.25
2022-07-31T10:35:23.544Z,51.70
2022-07-31T10:38:30.340Z,52.18
2022-07-31T10:41:08.117Z,52.60
2022-07-31T10:43:57.762Z,52.25
2022-07-31T10:46:29.365Z,51.72
2022-07-31T10:48:57.679Z,50.22
2022-07-31T10:51:27.729Z,49.81
2022-07-31T10:54:06.174Z,49.55
2022-07-31T10:56:44.521Z,48.82
2022-07-31T10:59:12.967Z,48.89
2022-07-31T11:01:53.318Z,49.68
2022-07-31T11:04:32.513Z,48.70
2022-07-31T11:07:00.184Z,49.10
2022-07-31T11:09:29.182Z,46.38
2022-07-31T11:11:57.397Z,46.36
2022-07-31T11:14:39.708Z,48.20
2022-07-31T11:17:07.548Z,47.33
2022-07-31T11:19:43.015Z,48.31
2022-07-31T11:22:32.104Z,49.42
2022-07-31T11:25:04.091Z,48.24
2022-07-31T11:27:31.819Z,49.87
2022-07-31T11:30:13.001Z,48.51
2022-07-31T11:32:41.515Z,48.75
2022-07-31T11:35:14.145Z,49.38
2022-07-31T11:37:56.489Z,48.84
2022-07-31T11:40:27.859Z,48.40
2022-07-31T11:43:23.552Z,47.35
2022-07-31T11:45:48.310Z,48.07
2022-07-31T11:48:19.359Z,47.99
2022-07-31T11:50:47.522Z,48.58
2022-07-31T11:53:14.685Z,49.26
2022-07-31T11:55:49.938Z,48.51
2022-07-31T11:58:18.908Z,49.21
2022-07-31T12:00:50.555Z,49.19
2022-07-31T12:03:23.130Z,48.65
2022-07-31T12:05:55.240Z,47.89
2022-07-31T12:08:24.045Z,48.09
2022-07-31T12:10:55.526Z,48.21
2022-07-31T12:13:24.145Z,47.82
2022-07-31T12:15:59.584Z,48.27
2022-07-31T12:18:28.576Z,48.70
2022-07-31T12:20:56.975Z,48.22
2022-07-31T12:23:40.819Z,49.66
2022-07-31T12:26:09.505Z,49.38
2022-07-31T12:28:36.730Z,48.97
2022-07-31T12:31:04.058Z,46.84
2022-07-31T12:33:41.008Z,47.77
2022-07-31T12:36:16.229Z,47.64
2022-07-31T12:38:48.441Z,47.29
2022-07-31T12:41:16.623Z,47.63
2022-07-31T12:43:50.915Z,46.44
2022-07-31T12:46:35.048Z,47.30
2022-07-31T12:49:02.540Z,48.28
2022-07-31T12:51:45.463Z,46.72
2022-07-31T12:54:18.061Z,46.41
2022-07-31T12:56:47.559Z,47.02
2022-07-31T12:59:14.529Z,46.50
2022-07-31T13:01:45.493Z,45.78
2022-07-31T13:04:19.028Z,46.40
2022-07-31T13:06:49.049Z,46.51
2022-07-31T13:09:16.228Z,46.25
2022-07-31T13:11:46.645Z,45.97
2022-07-31T13:14:20.517Z,46.41
2022-07-31T13:16:48.266Z,46.58
2022-07-31T13:19:15.611Z,46.07
2022-07-31T13:21:49.478Z,45.90
2022-07-31T13:24:21.126Z,46.47
2022-07-31T13:26:49.264Z,46.25
2022-07-31T13:29:17.883Z,47.02
2022-07-31T13:31:44.882Z,46.67
2022-07-31T13:34:12.975Z,47.28
2022-07-31T13:36:43.001Z,46.96
2022-07-31T13:39:10.215Z,46.71
2022-07-31T13:41:39.704Z,46.35
2022-07-31T13:44:08.273Z,46.97
2022-07-31T13:46:35.417Z,46.91
2022-07-31T13:49:02.730Z,46.33
2022-07-31T13:51:30.100Z,46.30
2022-07-31T13:53:57.292Z,48.10
2022-07-31T13:56:39.145Z,46.76
2022-07-31T13:59:14.146Z,46.28
2022-07-31T14:02:13.437Z,47.02
2022-07-31T14:04:38.185Z,47.49
2022-07-31T14:07:06.855Z,46.47
2022-07-31T14:09:35.155Z,45.02
2022-07-31T14:12:04.459Z,44.02
2022-07-31T14:14:34.136Z,43.69
2022-07-31T14:17:01.541Z,44.05
2022-07-31T14:19:28.795Z,43.45
2022-07-31T14:21:57.841Z,43.15
2022-07-31T14:24:30.598Z,43.11
2022-07-31T14:26:57.726Z,42.61
2022-07-31T14:29:24.916Z,43.62
2022-07-31T14:31:53.039Z,43.91
2022-07-31T14:34:24.376Z,43.30
2022-07-31T14:37:03.300Z,43.41
2022-07-31T14:39:31.181Z,42.63
2022-07-31T14:42:01.214Z,43.18
2022-07-31T14:44:31.430Z,43.70
2022-07-31T14:47:00.032Z,44.46
2022-07-31T14:50:09.498Z,42.79
2022-07-31T14:52:23.146Z,42.12
2022-07-31T14:54:51.672Z,42.34
2022-07-31T14:57:22.277Z,42.23
2022-07-31T14:59:51.499Z,42.19
2022-07-31T15:02:22.509Z,42.82
2022-07-31T15:04:53.370Z,41.37
2022-07-31T15:07:41.180Z,40.95
2022-07-31T15:10:10.365Z,42.17
2022-07-31T15:12:42.478Z,41.68
2022-07-31T15:15:14.222Z,42.30
2022-07-31T15:17:44.200Z,42.76
2022-07-31T15:20:11.683Z,42.10
2022-07-31T15:22:38.587Z,42.00
2022-07-31T15:25:06.244Z,41.58
2022-07-31T15:27:33.233Z,42.05
2022-07-31T15:30:06.467Z,42.21
2022-07-31T15:32:39.219Z,42.66
2022-07-31T15:35:08.055Z,42.88
2022-07-31T15:37:39.286Z,41.80
2022-07-31T15:40:08.102Z,41.99
2022-07-31T15:42:40.818Z,42.48
2022-07-31T15:45:20.589Z,43.62
2022-07-31T15:47:48.213Z,43.30
2022-07-31T15:50:17.800Z,43.00
2022-07-31T15:52:44.963Z,43.49
2022-07-31T15:55:11.957Z,42.91
2022-07-31T15:57:39.555Z,43.58
2022-07-31T16:00:10.548Z,44.24
2022-07-31T16:02:37.747Z,43.83
2022-07-31T16:05:21.311Z,43.97
2022-07-31T16:08:29.170Z,44.17
2022-07-31T16:10:35.435Z,44.46
2022-07-31T16:13:03.486Z,44.57
2022-07-31T16:15:30.904Z,44.38
2022-07-31T16:17:58.118Z,44.32
2022-07-31T16:20:26.806Z,44.73
2022-07-31T16:22:56.484Z,44.71
2022-07-31T16:25:24.964Z,44.94
2022-07-31T16:27:52.271Z,44.55
2022-07-31T16:30:19.192Z,44.99
2022-07-31T16:32:46.367Z,43.67
2022-07-31T16:35:13.244Z,44.16
2022-07-31T16:37:51.234Z,45.18
2022-07-31T16:40:28.768Z,44.72
2022-07-31T16:42:56.460Z,44.73
2022-07-31T16:45:23.543Z,44.73
2022-07-31T16:47:51.523Z,44.77
2022-07-31T16:50:18.530Z,45.20
2022-07-31T16:52:45.356Z,44.31
2022-07-31T16:55:11.946Z,44.58
2022-07-31T16:57:38.533Z,44.87
2022-07-31T17:00:07.270Z,44.86
2022-07-31T17:02:34.300Z,45.72
2022-07-31T17:05:00.983Z,45.48
2022-07-31T17:07:28.618Z,44.63
2022-07-31T17:09:55.222Z,44.40
2022-07-31T17:12:21.856Z,44.79
2022-07-31T17:14:48.765Z,44.55
2022-07-31T17:17:16.980Z,43.75
2022-07-31T17:19:46.820Z,44.01
2022-07-31T17:22:17.798Z,44.72
2022-07-31T17:24:50.522Z,46.19
2022-07-31T17:27:17.969Z,45.48
2022-07-31T17:29:44.791Z,45.07
2022-07-31T17:32:11.756Z,44.42
2022-07-31T17:34:39.354Z,46.18
2022-07-31T17:37:07.406Z,45.21
2022-07-31T17:39:35.389Z,46.13
2022-07-31T17:42:02.159Z,46.80
2022-07-31T17:44:29.570Z,48.07
2022-07-31T17:46:57.871Z,47.83
2022-07-31T17:49:25.158Z,47.37
2022-07-31T17:52:07.990Z,48.25
2022-07-31T17:54:34.987Z,48.62
2022-07-31T17:57:02.249Z,49.00
2022-07-31T17:59:29.396Z,48.77
2022-07-31T18:02:06.887Z,49.52
2022-07-31T18:04:37.245Z,48.87
2022-07-31T18:07:05.497Z,48.98
2022-07-31T18:09:33.053Z,49.00
2022-07-31T18:12:00.280Z,50.21
2022-07-31T18:14:27.292Z,49.88
2022-07-31T18:16:58.754Z,51.28
2022-07-31T18:19:25.506Z,51.25
2022-07-31T18:21:52.826Z,51.70
2022-07-31T18:24:20.802Z,52.35
2022-07-31T18:26:47.798Z,50.80
2022-07-31T18:29:19.781Z,51.54
2022-07-31T18:31:47.004Z,52.39
2022-07-31T18:34:13.956Z,53.94
2022-07-31T18:36:40.811Z,54.47
2022-07-31T18:39:07.811Z,54.95
2022-07-31T18:41:34.553Z,55.18
2022-07-31T18:44:01.545Z,55.54
2022-07-31T18:46:28.272Z,55.99
2022-07-31T18:48:56.267Z,56.50
2022-07-31T18:51:25.114Z,56.97
2022-07-31T18:53:52.011Z,56.84
2022-07-31T18:56:21.793Z,57.14
2022-07-31T18:58:52.198Z,57.38
2022-07-31T19:01:19.118Z,58.65
2022-07-31T19:03:45.908Z,60.82
2022-07-31T19:06:12.995Z,61.30
2022-07-31T19:08:39.694Z,59.59
2022-07-31T19:11:06.485Z,61.24
2022-07-31T19:13:33.417Z,61.44
2022-07-31T19:16:00.225Z,60.56
2022-07-31T19:18:30.282Z,61.25
2022-07-31T19:21:23.206Z,62.96
2022-07-31T19:23:44.081Z,65.50
2022-07-31T19:26:10.917Z,65.94
2022-07-31T19:28:39.844Z,66.09
2022-07-31T19:31:06.823Z,64.36
2022-07-31T19:33:33.431Z,64.99
2022-07-31T19:36:02.660Z,65.89
2022-07-31T19:38:31.582Z,66.49
2022-07-31T19:40:58.537Z,67.75
2022-07-31T19:43:25.222Z,69.30
2022-07-31T19:45:59.816Z,69.36
2022-07-31T19:48:40.974Z,68.12
2022-07-31T19:51:08.154Z,66.67
2022-07-31T19:53:35.084Z,66.54
2022-07-31T19:56:05.731Z,66.62
2022-07-31T19:58:36.354Z,68.06
2022-07-31T20:01:05.094Z,69.45
2022-07-31T20:03:32.115Z,69.80
2022-07-31T20:05:58.910Z,70.60
2022-07-31T20:08:25.626Z,71.27
2022-07-31T20:10:52.449Z,69.61
2022-07-31T20:13:19.228Z,71.71
2022-07-31T20:15:52.563Z,69.27
2022-07-31T20:18:27.171Z,70.75
2022-07-31T20:20:59.148Z,70.98
2022-07-31T20:23:27.057Z,71.52
2022-07-31T20:25:53.887Z,71.17
2022-07-31T20:28:20.768Z,70.47
2022-07-31T20:30:47.407Z,71.82
2022-07-31T20:33:14.234Z,73.42
2022-07-31T20:35:48.383Z,73.66
2022-07-31T20:38:17.230Z,72.89
2022-07-31T20:40:52.972Z,72.89
2022-07-31T20:43:28.268Z,74.37
2022-07-31T20:45:59.280Z,75.89
2022-07-31T20:48:31.703Z,75.79
2022-07-31T20:50:59.698Z,76.65
2022-07-31T20:53:26.622Z,75.63
2022-07-31T20:55:53.342Z,75.25
2022-07-31T20:58:21.479Z,74.96
2022-07-31T21:00:49.438Z,75.64
2022-07-31T21:03:16.994Z,76.34
2022-07-31T21:05:44.489Z,76.17
2022-07-31T21:08:12.125Z,77.18
2022-07-31T21:10:39.935Z,77.44
2022-07-31T21:13:06.551Z,77.72
2022-07-31T21:15:41.987Z,79.02
2022-07-31T21:18:12.023Z,78.82
2022-07-31T21:20:52.045Z,78.58
2022-07-31T21:23:24.512Z,78.15
2022-07-31T21:25:52.512Z,80.26
2022-07-31T21:28:19.375Z,80.40
2022-07-31T21:30:46.932Z,80.92
2022-07-31T21:33:13.688Z,80.71
2022-07-31T21:35:40.900Z,80.84
2022-07-31T21:38:12.146Z,80.38
2022-07-31T21:40:39.997Z,79.92
2022-07-31T21:43:07.221Z,79.13
2022-07-31T21:45:49.712Z,80.17
2022-07-31T21:48:22.743Z,79.29
2022-07-31T21:50:49.394Z,80.35
2022-07-31T21:53:16.015Z,81.14
2022-07-31T21:55:42.799Z,81.59
2022-07-31T21:58:09.786Z,82.10
2022-07-31T22:00:36.988Z,82.83
2022-07-31T22:03:04.745Z,83.57
2022-07-31T22:05:50.853Z,80.43
2022-07-31T22:08:17.715Z,80.51
2022-07-31T22:10:44.666Z,81.42
2022-07-31T22:13:11.341Z,82.15
2022-07-31T22:15:55.387Z,83.10
2022-07-31T22:18:29.788Z,84.30
2022-07-31T22:20:57.525Z,83.16
2022-07-31T22:23:25.269Z,82.10
2022-07-31T22:25:51.981Z,81.59
2022-07-31T22:28:20.340Z,80.05
2022-07-31T22:30:47.377Z,80.92
2022-07-31T22:33:14.615Z,82.48
2022-07-31T22:35:41.306Z,83.41
2022-07-31T22:38:11.741Z,84.74
2022-07-31T22:40:38.637Z,87.32
2022-07-31T22:44:09.881Z,87.02
2022-07-31T22:45:53.650Z,89.06
2022-07-31T22:48:21.918Z,90.72
2022-07-31T22:50:49.335Z,92.82
2022-07-31T22:53:15.942Z,93.34
2022-07-31T22:55:42.591Z,93.23
2022-07-31T22:58:11.499Z,93.30
2022-07-31T23:00:38.518Z,94.81
2022-07-31T23:03:05.245Z,96.21
2022-07-31T23:06:02.759Z,95.71
2022-07-31T23:08:18.630Z,96.21
2022-07-31T23:10:45.263Z,97.55
2022-07-31T23:13:11.824Z,98.16
2022-07-31T23:15:38.441Z,98.33
2022-07-31T23:18:05.065Z,99.14
2022-07-31T23:20:31.951Z,100.00
2022-07-31T23:22:58.587Z,100.00
2022-07-31T23:25:25.203Z,100.00
2022-07-31T23:27:51.910Z,100.00
2022-07-31T23:30:18.564Z,100.00
2022-07-31T23:32:45.267Z,100.00
2022-07-31T23:35:11.955Z,100.00
2022-07-31T23:37:38.677Z,100.00
2022-07-31T23:40:06.159Z,100.00
2022-07-31T23:42:38.685Z,100.00
2022-07-31T23:45:11.332Z,100.00
2022-07-31T23:47:45.656Z,100.00
2022-07-31T23:50:13.870Z,100.00
2022-07-31T23:52:40.650Z,100.00
2022-07-31T23:55:07.765Z,100.00
2022-07-31T23:57:36.217Z,100.00
